Time;durP1;ratioP1;P1;durP2;ratioP2;P2;SDS_P1;SDS_P2;PMS_P1;PMS_P2;Temp;Humidity;BMP_temperature;BMP_pressure;BME280_temperature;BME280_humidity;BME280_pressure;Samples;Min_cycle;Max_cycle;Signal;HPM_P1;HPM_P2
2023/06/23 00:00:00;;;;;;;2.67;1.63;;;21.30;74.00;;;;;;4969184;28;20487;-70
2023/06/23 00:02:27;;;;;;;4.90;1.80;;;21.30;74.30;;;;;;4970181;28;20452;-70
2023/06/23 00:04:53;;;;;;;3.07;2.00;;;21.30;74.50;;;;;;4970500;28;20431;-69
2023/06/23 00:07:19;;;;;;;2.87;1.70;;;21.30;74.80;;;;;;4969155;28;20432;-70
2023/06/23 00:09:45;;;;;;;3.57;2.10;;;21.30;74.90;;;;;;4970190;28;20923;-68
2023/06/23 00:12:10;;;;;;;2.77;2.03;;;21.30;75.10;;;;;;4972874;28;20206;-71
2023/06/23 00:14:36;;;;;;;3.27;1.90;;;21.20;75.70;;;;;;4971560;28;20185;-70
2023/06/23 00:17:02;;;;;;;4.00;1.70;;;21.20;75.80;;;;;;4971231;28;20216;-71
2023/06/23 00:19:31;;;;;;;2.40;1.60;;;21.20;75.70;;;;;;4971432;28;20182;-70
2023/06/23 00:21:57;;;;;;;1.97;1.37;;;21.20;75.80;;;;;;4970011;28;20864;-71
2023/06/23 00:24:23;;;;;;;3.27;2.20;;;21.10;75.90;;;;;;4964059;28;20432;-70
2023/06/23 00:26:50;;;;;;;3.93;1.90;;;21.00;76.40;;;;;;4971039;28;20896;-71
2023/06/23 00:29:15;;;;;;;3.40;1.90;;;21.00;76.80;;;;;;4973433;28;20288;-69
2023/06/23 00:31:41;;;;;;;2.70;1.90;;;20.90;77.10;;;;;;4972012;28;20547;-70
2023/06/23 00:34:06;;;;;;;4.80;2.17;;;20.90;77.60;;;;;;4975488;28;20241;-70
2023/06/23 00:36:32;;;;;;;3.10;1.90;;;20.80;77.80;;;;;;4977098;28;20279;-69
2023/06/23 00:38:57;;;;;;;4.33;2.20;;;20.80;78.10;;;;;;4972712;28;20196;-70
2023/06/23 00:41:23;;;;;;;3.60;2.43;;;20.80;78.30;;;;;;4971666;28;20205;-70
2023/06/23 00:43:50;;;;;;;2.80;1.80;;;20.80;78.70;;;;;;4971751;28;20744;-71
2023/06/23 00:46:24;;;;;;;3.20;2.33;;;20.70;79.00;;;;;;4968929;28;20204;-71
2023/06/23 00:48:50;;;;;;;5.27;2.77;;;20.70;79.20;;;;;;4969137;28;20438;-70
2023/06/23 00:51:16;;;;;;;3.40;2.30;;;20.70;79.60;;;;;;4967264;28;20541;-70
2023/06/23 00:53:47;;;;;;;6.40;3.00;;;20.70;79.90;;;;;;4973105;28;20470;-69
2023/06/23 00:56:18;;;;;;;3.30;2.20;;;20.60;80.00;;;;;;4971951;28;20490;-69
2023/06/23 00:58:44;;;;;;;2.93;2.30;;;20.60;80.60;;;;;;4972808;28;20894;-67
2023/06/23 01:01:10;;;;;;;4.83;2.80;;;20.50;81.40;;;;;;4971582;28;20884;-71
2023/06/23 01:03:37;;;;;;;3.17;2.00;;;20.40;81.90;;;;;;4972936;28;20585;-69
2023/06/23 01:06:24;;;;;;;2.30;2.00;;;20.30;82.20;;;;;;4970124;28;20602;-68
2023/06/23 01:09:00;;;;;;;4.77;2.83;;;20.30;82.40;;;;;;4969023;28;20434;-68
2023/06/23 01:11:35;;;;;;;4.70;2.80;;;20.30;83.10;;;;;;4971626;28;20461;-67
2023/06/23 01:14:15;;;;;;;4.23;2.73;;;20.20;84.60;;;;;;4973695;28;20909;-71
2023/06/23 01:17:13;;;;;;;5.33;2.80;;;19.90;85.70;;;;;;4976879;28;20466;-69
2023/06/23 01:19:53;;;;;;;4.13;2.60;;;19.80;87.00;;;;;;4960043;28;20824;-68
2023/06/23 01:22:39;;;;;;;4.03;2.40;;;19.80;87.40;;;;;;4971291;28;20437;-70
2023/06/23 01:25:36;;;;;;;3.20;2.60;;;19.80;87.80;;;;;;4972276;28;20414;-68
2023/06/23 01:28:32;;;;;;;5.90;3.30;;;19.60;87.70;;;;;;4969262;28;20961;-70
2023/06/23 01:31:01;;;;;;;4.53;3.03;;;19.50;88.60;;;;;;4981858;28;20470;-69
2023/06/23 01:33:37;;;;;;;7.27;3.20;;;19.50;89.20;;;;;;4954669;28;20522;-67
2023/06/23 01:36:25;;;;;;;4.03;3.17;;;19.30;88.70;;;;;;4965684;28;20562;-69
2023/06/23 01:38:57;;;;;;;4.10;3.00;;;19.00;89.70;;;;;;4984048;28;20429;-68
2023/06/23 01:41:26;;;;;;;7.07;4.40;;;18.80;90.50;;;;;;4978320;28;20501;-69
2023/06/23 01:43:55;;;;;;;5.80;3.60;;;18.60;89.60;;;;;;4977483;28;20506;-69
2023/06/23 01:46:34;;;;;;;10.23;4.87;;;18.50;90.10;;;;;;4979180;28;20444;-69
2023/06/23 01:49:07;;;;;;;7.30;4.83;;;18.40;89.90;;;;;;4978139;28;20435;-68
2023/06/23 01:51:34;;;;;;;6.83;4.47;;;18.40;90.00;;;;;;4979404;28;20573;-67
2023/06/23 01:54:00;;;;;;;8.67;5.30;;;18.40;89.70;;;;;;4975702;28;20435;-69
2023/06/23 01:56:27;;;;;;;8.93;5.10;;;18.30;89.70;;;;;;4970764;28;20483;-67
2023/06/23 01:58:55;;;;;;;7.20;4.60;;;18.30;89.00;;;;;;4971626;28;20441;-69
2023/06/23 02:01:22;;;;;;;9.07;5.27;;;18.40;88.40;;;;;;4969611;28;20462;-67
2023/06/23 02:03:49;;;;;;;6.83;4.90;;;18.40;87.80;;;;;;4971333;28;20450;-68
2023/06/23 02:06:15;;;;;;;8.30;5.10;;;18.50;87.70;;;;;;4970860;28;20915;-69
2023/06/23 02:08:41;;;;;;;7.30;4.90;;;18.50;87.70;;;;;;4971148;28;20590;-68
2023/06/23 02:11:08;;;;;;;7.20;4.20;;;18.50;87.70;;;;;;4969329;28;20565;-69
2023/06/23 02:13:35;;;;;;;7.57;4.40;;;18.50;87.10;;;;;;4970983;28;20212;-68
2023/06/23 02:16:02;;;;;;;6.20;4.13;;;18.50;87.10;;;;;;4970558;28;20469;-68
2023/06/23 02:18:29;;;;;;;7.50;4.27;;;18.50;87.10;;;;;;4968889;28;20421;-68
2023/06/23 02:20:56;;;;;;;5.43;3.10;;;18.50;87.30;;;;;;4969364;28;20462;-69
2023/06/23 02:23:23;;;;;;;5.97;3.07;;;18.40;86.80;;;;;;4970447;28;20462;-69
2023/06/23 02:25:50;;;;;;;5.80;3.60;;;18.40;87.40;;;;;;4968446;28;20428;-70
2023/06/23 02:28:16;;;;;;;5.47;3.20;;;18.40;86.90;;;;;;4970971;28;20484;-68
2023/06/23 02:30:49;;;;;;;5.80;3.47;;;18.40;87.10;;;;;;4968112;28;20476;-68
2023/06/23 02:33:15;;;;;;;4.70;3.23;;;18.50;87.00;;;;;;4968689;28;20979;-67
2023/06/23 02:35:41;;;;;;;4.23;2.93;;;18.40;86.20;;;;;;4970221;28;20513;-69
2023/06/23 02:38:12;;;;;;;6.90;3.43;;;18.40;86.30;;;;;;4970478;28;20221;-69
2023/06/23 02:40:39;;;;;;;6.13;3.70;;;18.40;86.30;;;;;;4962264;28;20213;-69
2023/06/23 02:43:08;;;;;;;5.90;3.63;;;18.40;86.50;;;;;;4969962;28;20419;-68
2023/06/23 02:45:42;;;;;;;6.93;4.10;;;18.40;86.60;;;;;;4970044;28;20432;-68
2023/06/23 02:48:15;;;;;;;5.40;3.53;;;18.40;85.70;;;;;;4967446;28;20458;-69
2023/06/23 02:50:43;;;;;;;7.03;4.00;;;18.40;85.60;;;;;;4969029;28;20523;-71
2023/06/23 02:53:12;;;;;;;6.93;3.90;;;18.40;85.70;;;;;;4969330;28;20904;-70
2023/06/23 02:55:44;;;;;;;8.43;5.30;;;18.40;85.70;;;;;;4969649;28;20979;-70
2023/06/23 02:58:14;;;;;;;9.80;5.90;;;18.40;85.90;;;;;;4969676;28;20524;-69
2023/06/23 03:00:40;;;;;;;9.50;5.10;;;18.40;86.20;;;;;;4967988;28;21213;-69
2023/06/23 03:03:12;;;;;;;7.57;5.40;;;18.30;86.00;;;;;;4970225;28;20462;-69
2023/06/23 03:05:38;;;;;;;8.17;5.53;;;18.30;86.30;;;;;;4969626;28;20816;-69
2023/06/23 03:08:05;;;;;;;12.90;7.30;;;18.30;86.20;;;;;;4984638;28;20498;-71
2023/06/23 03:10:32;;;;;;;10.70;6.80;;;18.30;86.30;;;;;;4966427;28;20224;-69
2023/06/23 03:13:00;;;;;;;12.33;7.50;;;18.30;86.20;;;;;;4969535;28;20438;-69
2023/06/23 03:15:26;;;;;;;12.50;6.80;;;18.40;85.30;;;;;;4968756;28;20822;-69
2023/06/23 03:18:00;;;;;;;16.00;8.57;;;18.40;85.50;;;;;;4965204;28;20499;-68
2023/06/23 03:20:50;;;;;;;14.13;7.57;;;18.30;85.00;;;;;;4965938;28;20467;-69
2023/06/23 03:23:17;;;;;;;13.80;8.60;;;18.30;85.30;;;;;;4951324;28;20431;-70
2023/06/23 03:25:47;;;;;;;12.97;8.57;;;18.20;85.20;;;;;;4967764;28;20566;-70
2023/06/23 03:28:19;;;;;;;16.70;8.73;;;18.20;85.30;;;;;;4970092;28;20776;-69
2023/06/23 03:30:48;;;;;;;15.83;8.83;;;18.20;85.30;;;;;;4971457;28;20494;-68
2023/06/23 03:33:22;;;;;;;15.70;9.40;;;18.20;85.30;;;;;;4970380;28;20439;-69
2023/06/23 03:35:49;;;;;;;14.67;8.90;;;18.10;85.90;;;;;;4968877;28;20418;-70
2023/06/23 03:38:21;;;;;;;16.33;8.40;;;18.10;86.50;;;;;;4969055;28;20482;-70
2023/06/23 03:41:03;;;;;;;16.80;9.87;;;18.00;86.50;;;;;;4966429;28;20451;-69
2023/06/23 03:43:41;;;;;;;16.20;9.37;;;18.10;86.20;;;;;;4966283;28;20925;-70
2023/06/23 03:46:16;;;;;;;13.20;8.60;;;18.10;85.70;;;;;;4970136;28;20433;-73
2023/06/23 03:48:44;;;;;;;13.87;8.80;;;18.10;85.70;;;;;;4966901;28;20418;-69
2023/06/23 03:51:14;;;;;;;17.53;8.43;;;18.20;85.50;;;;;;4966826;28;20969;-71
2023/06/23 03:53:41;;;;;;;16.13;9.03;;;18.20;84.40;;;;;;4966928;28;20424;-71
2023/06/23 03:56:11;;;;;;;14.73;9.17;;;18.30;84.60;;;;;;4968688;28;20878;-69
2023/06/23 03:58:38;;;;;;;14.90;10.10;;;18.30;84.40;;;;;;4968945;28;20444;-67
2023/06/23 04:01:05;;;;;;;14.03;8.67;;;18.30;83.80;;;;;;4966137;28;20455;-69
2023/06/23 04:03:32;;;;;;;18.83;10.20;;;18.40;84.00;;;;;;4968788;28;20838;-69
2023/06/23 04:05:59;;;;;;;15.17;9.67;;;18.50;83.70;;;;;;4962650;28;20436;-69
2023/06/23 04:08:30;;;;;;;13.43;8.83;;;18.60;82.80;;;;;;4969356;28;20417;-70
2023/06/23 04:10:57;;;;;;;18.53;10.57;;;18.60;82.40;;;;;;4965619;28;20496;-70
2023/06/23 04:13:26;;;;;;;16.27;9.43;;;18.70;81.80;;;;;;4964869;28;21005;-69
2023/06/23 04:15:54;;;;;;;19.57;11.10;;;18.60;81.50;;;;;;4968580;28;20425;-68
2023/06/23 04:18:23;;;;;;;18.50;9.90;;;18.60;81.90;;;;;;4969428;28;20845;-69
2023/06/23 04:20:50;;;;;;;18.97;10.83;;;18.70;81.40;;;;;;4965854;28;20489;-69
2023/06/23 04:23:18;;;;;;;16.10;10.50;;;18.70;81.20;;;;;;4969184;28;20436;-69
2023/06/23 04:25:48;;;;;;;18.50;9.80;;;18.70;81.40;;;;;;4969693;28;20429;-68
2023/06/23 04:28:15;;;;;;;16.10;10.23;;;18.70;81.20;;;;;;4972967;28;20436;-70
2023/06/23 04:30:42;;;;;;;16.20;10.03;;;18.80;81.10;;;;;;4969948;28;20552;-69
2023/06/23 04:33:08;;;;;;;15.17;10.70;;;18.80;80.50;;;;;;4972649;28;20439;-70
2023/06/23 04:35:35;;;;;;;20.33;11.83;;;18.90;80.60;;;;;;4972710;28;20430;-70
2023/06/23 04:38:10;;;;;;;18.70;10.27;;;18.90;80.20;;;;;;4975688;28;20303;-70
2023/06/23 04:40:46;;;;;;;19.13;11.57;;;19.00;79.70;;;;;;4973710;28;20975;-68
2023/06/23 04:43:14;;;;;;;21.43;12.57;;;19.10;79.30;;;;;;4978117;28;20436;-68
2023/06/23 04:45:53;;;;;;;17.13;10.23;;;19.00;79.20;;;;;;4975731;28;20434;-69
2023/06/23 04:48:24;;;;;;;21.53;12.20;;;19.10;78.90;;;;;;4977896;28;20467;-70
2023/06/23 04:50:54;;;;;;;19.70;11.63;;;19.20;78.30;;;;;;4973395;28;21004;-70
2023/06/23 04:53:23;;;;;;;21.87;12.87;;;19.20;77.60;;;;;;4973941;28;20932;-69
2023/06/23 04:55:53;;;;;;;16.60;11.10;;;19.20;77.80;;;;;;4972827;28;20803;-70
2023/06/23 04:58:23;;;;;;;23.67;12.40;;;19.10;78.00;;;;;;4986093;28;20495;-70
2023/06/23 05:00:50;;;;;;;18.20;11.47;;;19.10;77.80;;;;;;4969890;28;20468;-70
2023/06/23 05:03:17;;;;;;;19.17;11.43;;;19.10;78.10;;;;;;4971395;28;20844;-69
2023/06/23 05:05:44;;;;;;;18.70;11.67;;;19.00;78.40;;;;;;4965922;28;20418;-69
2023/06/23 05:08:12;;;;;;;24.80;13.27;;;19.00;78.90;;;;;;4972146;28;20433;-68
2023/06/23 05:10:40;;;;;;;23.97;13.53;;;19.00;78.40;;;;;;4970291;28;20947;-70
2023/06/23 05:13:08;;;;;;;23.10;13.30;;;18.90;78.60;;;;;;4971990;28;20428;-69
2023/06/23 05:15:34;;;;;;;23.50;13.97;;;18.90;78.70;;;;;;4970765;28;20898;-68
2023/06/23 05:18:02;;;;;;;22.97;13.20;;;19.00;78.40;;;;;;4971882;28;20515;-69
2023/06/23 05:20:30;;;;;;;24.37;13.70;;;19.00;78.60;;;;;;4969870;28;20313;-68
2023/06/23 05:22:58;;;;;;;25.70;14.67;;;19.00;78.10;;;;;;4971680;28;20432;-69
2023/06/23 05:25:29;;;;;;;24.27;14.77;;;19.00;78.30;;;;;;4971630;28;20414;-69
2023/06/23 05:28:00;;;;;;;25.03;14.47;;;19.10;78.00;;;;;;4971311;28;20504;-69
2023/06/23 05:30:27;;;;;;;24.43;14.73;;;19.10;77.80;;;;;;4970094;28;20549;-68
2023/06/23 05:32:56;;;;;;;27.07;15.97;;;19.20;77.40;;;;;;4973627;28;20434;-70
2023/06/23 05:35:23;;;;;;;29.97;16.37;;;19.30;76.80;;;;;;4973980;28;20429;-70
2023/06/23 05:37:50;;;;;;;32.63;17.90;;;19.20;76.50;;;;;;4973292;28;20483;-68
2023/06/23 05:40:16;;;;;;;26.60;16.03;;;19.30;76.10;;;;;;4970864;28;20949;-69
2023/06/23 05:42:42;;;;;;;27.60;16.67;;;19.30;76.20;;;;;;4972114;28;20507;-68
2023/06/23 05:45:09;;;;;;;31.17;16.60;;;19.40;76.20;;;;;;4971546;28;20188;-68
2023/06/23 05:47:44;;;;;;;28.80;16.87;;;19.50;75.20;;;;;;4972092;28;20490;-69
2023/06/23 05:50:32;;;;;;;34.30;17.70;;;19.50;75.20;;;;;;4967943;28;20596;-68
2023/06/23 05:53:02;;;;;;;29.93;17.40;;;19.50;74.80;;;;;;4971948;28;20836;-68
2023/06/23 05:55:31;;;;;;;36.17;18.47;;;19.50;74.60;;;;;;4973610;28;20437;-68
2023/06/23 05:58:02;;;;;;;31.63;18.17;;;19.50;74.00;;;;;;4972424;28;20466;-69
2023/06/23 06:00:34;;;;;;;30.87;17.97;;;19.50;74.60;;;;;;4969031;28;20473;-68
2023/06/23 06:03:03;;;;;;;32.00;16.97;;;19.50;74.60;;;;;;4971320;28;20565;-68
2023/06/23 06:05:32;;;;;;;29.60;17.73;;;19.50;74.80;;;;;;4970961;28;20823;-70
2023/06/23 06:07:58;;;;;;;29.13;15.87;;;19.50;74.50;;;;;;4971957;28;20810;-70
2023/06/23 06:10:26;;;;;;;27.93;17.13;;;19.50;74.60;;;;;;4969522;28;20459;-69
2023/06/23 06:12:52;;;;;;;30.43;17.50;;;19.60;74.30;;;;;;4970926;28;20915;-69
2023/06/23 06:15:19;;;;;;;28.70;16.73;;;19.70;74.00;;;;;;4971688;28;20912;-69
2023/06/23 06:17:46;;;;;;;31.13;17.53;;;19.70;74.00;;;;;;4970848;28;20965;-68
2023/06/23 06:20:14;;;;;;;33.63;18.93;;;19.90;73.90;;;;;;4951588;28;20465;-68
2023/06/23 06:22:41;;;;;;;27.80;15.30;;;19.90;73.00;;;;;;4968638;28;20441;-68
2023/06/23 06:25:11;;;;;;;24.17;15.33;;;20.00;72.90;;;;;;4970170;28;20435;-68
2023/06/23 06:27:37;;;;;;;25.30;14.80;;;20.00;72.40;;;;;;4970844;28;20430;-68
2023/06/23 06:30:05;;;;;;;26.90;16.57;;;20.10;72.30;;;;;;4969398;28;20576;-69
2023/06/23 06:32:37;;;;;;;25.77;14.47;;;20.20;71.60;;;;;;4966596;28;20435;-68
2023/06/23 06:35:06;;;;;;;26.80;15.67;;;20.30;71.70;;;;;;4969320;28;20436;-69
2023/06/23 06:37:37;;;;;;;25.77;16.63;;;20.30;71.80;;;;;;4967266;28;20463;-68
2023/06/23 06:40:10;;;;;;;30.90;17.17;;;20.50;71.00;;;;;;4969279;28;21655;-68
2023/06/23 06:42:36;;;;;;;31.67;17.20;;;20.40;71.10;;;;;;4970871;28;20435;-69
2023/06/23 06:45:03;;;;;;;27.20;17.00;;;20.30;71.60;;;;;;4970237;28;20812;-69
2023/06/23 06:47:29;;;;;;;28.30;16.17;;;20.40;71.10;;;;;;4970832;28;20763;-69
2023/06/23 06:49:57;;;;;;;30.77;17.00;;;20.40;71.00;;;;;;4968102;28;20502;-68
2023/06/23 06:52:26;;;;;;;33.30;17.60;;;20.30;70.80;;;;;;4970376;28;20529;-68
2023/06/23 06:54:52;;;;;;;33.17;16.90;;;20.30;71.00;;;;;;4971807;28;20485;-68
2023/06/23 06:57:19;;;;;;;29.70;16.40;;;20.20;70.70;;;;;;4973201;28;20585;-69
2023/06/23 06:59:44;;;;;;;30.40;17.13;;;20.00;71.10;;;;;;4970077;28;20523;-69
2023/06/23 07:02:11;;;;;;;29.17;15.73;;;20.00;71.30;;;;;;4970472;28;20658;-69
2023/06/23 07:04:39;;;;;;;32.77;15.33;;;20.00;71.60;;;;;;4972415;28;20243;-70
2023/06/23 07:07:05;;;;;;;28.70;17.07;;;20.00;71.30;;;;;;4970766;28;20517;-70
2023/06/23 07:09:30;;;;;;;28.93;15.73;;;20.10;71.10;;;;;;4970901;28;20513;-69
2023/06/23 07:11:59;;;;;;;33.67;16.93;;;20.10;71.30;;;;;;4971189;28;20217;-70
2023/06/23 07:14:24;;;;;;;28.90;17.17;;;20.00;71.30;;;;;;4972256;28;20199;-69
2023/06/23 07:16:50;;;;;;;27.87;16.23;;;20.00;71.70;;;;;;4982942;28;20529;-69
2023/06/23 07:19:15;;;;;;;29.60;17.27;;;20.20;71.80;;;;;;4983945;28;20241;-69
2023/06/23 07:21:41;;;;;;;26.90;17.17;;;20.20;71.00;;;;;;4984616;28;20272;-69
2023/06/23 07:24:07;;;;;;;26.33;14.30;;;20.20;71.30;;;;;;4980074;28;20203;-70
2023/06/23 07:26:37;;;;;;;25.30;14.73;;;20.40;70.70;;;;;;4980126;28;20222;-70
2023/06/23 07:29:03;;;;;;;28.63;16.20;;;20.50;70.10;;;;;;4980275;28;20191;-71
2023/06/23 07:31:28;;;;;;;24.43;13.30;;;20.50;69.80;;;;;;4980438;28;20591;-69
2023/06/23 07:33:54;;;;;;;26.30;14.53;;;20.60;69.20;;;;;;4980817;28;20450;-69
2023/06/23 07:36:19;;;;;;;31.00;15.43;;;20.40;68.50;;;;;;4978681;28;20203;-69
2023/06/23 07:38:45;;;;;;;24.03;14.80;;;20.20;68.80;;;;;;4971807;28;20188;-69
2023/06/23 07:41:10;;;;;;;28.47;15.10;;;20.00;69.90;;;;;;4969351;28;20216;-70
2023/06/23 07:43:36;;;;;;;25.87;14.67;;;20.00;69.80;;;;;;4970936;28;20708;-70
2023/06/23 07:46:01;;;;;;;21.93;14.63;;;20.00;69.80;;;;;;4971269;28;20844;-70
2023/06/23 07:48:27;;;;;;;22.00;14.10;;;20.10;69.80;;;;;;4957837;28;20180;-70
2023/06/23 07:50:53;;;;;;;23.53;13.77;;;20.30;69.40;;;;;;4970201;28;20576;-69
2023/06/23 07:53:18;;;;;;;27.60;14.20;;;20.50;69.10;;;;;;4970596;28;20570;-70
2023/06/23 07:55:44;;;;;;;20.57;12.13;;;20.70;68.80;;;;;;4970392;28;20207;-69
2023/06/23 07:58:09;;;;;;;23.37;11.30;;;20.90;67.90;;;;;;4969513;28;20632;-69
2023/06/23 08:00:35;;;;;;;22.10;11.53;;;21.00;67.50;;;;;;4971709;28;20239;-69
2023/06/23 08:03:01;;;;;;;21.77;12.10;;;21.00;67.00;;;;;;4977563;28;20208;-68
2023/06/23 08:05:27;;;;;;;19.83;10.90;;;21.00;67.50;;;;;;4977491;28;20761;-70
2023/06/23 08:07:52;;;;;;;19.70;12.50;;;21.20;67.00;;;;;;4978985;28;20190;-69
2023/06/23 08:10:18;;;;;;;23.50;14.57;;;21.20;66.60;;;;;;4978041;28;20209;-69
2023/06/23 08:12:43;;;;;;;21.50;12.00;;;21.00;66.70;;;;;;4979162;28;20190;-68
2023/06/23 08:15:09;;;;;;;25.67;13.47;;;20.80;67.50;;;;;;4979191;28;20197;-70
2023/06/23 08:17:35;;;;;;;17.93;11.67;;;21.00;67.30;;;;;;4979365;28;20687;-70
2023/06/23 08:20:00;;;;;;;19.20;12.07;;;20.60;67.70;;;;;;4977534;28;20220;-70
2023/06/23 08:22:26;;;;;;;16.43;12.20;;;20.60;67.70;;;;;;4978995;28;20191;-69
2023/06/23 08:24:52;;;;;;;19.63;12.00;;;20.50;67.70;;;;;;4978804;28;20663;-69
2023/06/23 08:27:17;;;;;;;19.97;11.03;;;20.40;68.50;;;;;;4979304;28;20271;-70
2023/06/23 08:29:43;;;;;;;22.43;11.93;;;20.70;68.00;;;;;;4977787;28;20193;-70
2023/06/23 08:32:08;;;;;;;19.50;11.87;;;20.70;67.70;;;;;;4976828;28;20201;-69
2023/06/23 08:34:36;;;;;;;22.73;13.30;;;20.90;67.00;;;;;;4977358;28;20193;-69
2023/06/23 08:37:02;;;;;;;19.47;11.90;;;21.10;66.90;;;;;;4977742;28;20255;-70
2023/06/23 08:39:27;;;;;;;19.40;10.40;;;21.20;66.10;;;;;;4978149;28;20450;-69
2023/06/23 08:41:54;;;;;;;21.83;12.00;;;21.20;66.10;;;;;;4976269;28;20257;-70
2023/06/23 08:44:24;;;;;;;20.60;13.13;;;21.20;66.30;;;;;;4977915;28;20605;-68
2023/06/23 08:46:54;;;;;;;24.70;15.13;;;20.90;66.70;;;;;;4978289;28;20429;-68
2023/06/23 08:49:22;;;;;;;21.70;12.20;;;20.70;67.70;;;;;;4978398;28;20424;-71
2023/06/23 08:51:49;;;;;;;18.17;11.40;;;20.70;68.30;;;;;;4983750;28;20497;-68
2023/06/23 08:54:15;;;;;;;20.23;12.87;;;20.70;68.30;;;;;;4978527;28;20521;-68
2023/06/23 08:56:43;;;;;;;18.60;9.73;;;20.90;67.50;;;;;;4979150;28;20468;-70
2023/06/23 08:59:10;;;;;;;29.07;13.50;;;21.00;67.90;;;;;;4978667;28;20424;-68
2023/06/23 09:01:36;;;;;;;17.93;12.17;;;20.90;66.70;;;;;;4978277;28;20464;-69
2023/06/23 09:04:01;;;;;;;17.77;12.60;;;21.00;67.50;;;;;;4977592;28;20516;-69
2023/06/23 09:06:27;;;;;;;16.40;11.43;;;21.20;66.90;;;;;;4977284;28;20201;-71
2023/06/23 09:08:52;;;;;;;20.37;12.30;;;21.50;66.30;;;;;;4977817;28;20191;-70
2023/06/23 09:11:18;;;;;;;15.90;10.50;;;21.70;65.30;;;;;;4976191;28;20292;-68
2023/06/23 09:13:45;;;;;;;17.30;10.07;;;21.60;65.70;;;;;;4972396;28;20193;-70
2023/06/23 09:16:12;;;;;;;17.70;13.00;;;21.80;65.40;;;;;;4974413;28;20185;-72
2023/06/23 09:18:41;;;;;;;18.57;12.30;;;21.50;65.30;;;;;;4974077;28;20433;-69
2023/06/23 09:21:08;;;;;;;22.67;12.40;;;21.70;65.40;;;;;;4972900;28;20468;-70
2023/06/23 09:23:34;;;;;;;15.53;10.60;;;21.70;64.70;;;;;;4975191;28;20489;-70
2023/06/23 09:26:03;;;;;;;14.93;9.87;;;21.70;65.10;;;;;;4974323;28;20433;-71
2023/06/23 09:28:37;;;;;;;17.70;12.30;;;21.80;65.30;;;;;;4988930;28;20428;-70
2023/06/23 09:31:13;;;;;;;17.57;11.97;;;21.80;64.70;;;;;;4973174;28;20552;-71
2023/06/23 09:33:50;;;;;;;15.17;10.07;;;22.00;64.40;;;;;;4974634;28;20425;-70
2023/06/23 09:36:16;;;;;;;14.87;10.43;;;22.10;64.40;;;;;;4974477;28;20842;-69
2023/06/23 09:38:42;;;;;;;15.77;10.53;;;22.50;63.90;;;;;;4974440;28;20421;-69
2023/06/23 09:41:12;;;;;;;16.07;10.03;;;22.30;64.20;;;;;;4972775;28;20940;-69
2023/06/23 09:43:50;;;;;;;15.93;9.10;;;22.50;63.80;;;;;;4974198;28;20430;-70
2023/06/23 09:46:17;;;;;;;14.47;8.70;;;22.60;63.80;;;;;;4974187;28;20783;-70
2023/06/23 09:48:49;;;;;;;14.43;9.50;;;22.60;63.80;;;;;;4974600;28;21051;-69
2023/06/23 09:51:15;;;;;;;13.20;7.80;;;22.70;63.90;;;;;;4955586;28;20522;-70
2023/06/23 09:53:42;;;;;;;12.27;7.90;;;22.20;62.30;;;;;;4974108;28;20606;-70
2023/06/23 09:56:22;;;;;;;12.20;8.20;;;22.20;63.20;;;;;;4973898;28;20421;-70
2023/06/23 09:58:49;;;;;;;13.40;7.87;;;22.50;62.80;;;;;;4974408;28;20427;-69
2023/06/23 10:01:17;;;;;;;16.67;9.73;;;22.70;61.60;;;;;;4972170;28;20569;-72
2023/06/23 10:03:51;;;;;;;11.80;7.97;;;22.30;62.50;;;;;;4973845;28;20805;-69
2023/06/23 10:06:28;;;;;;;12.80;8.47;;;22.20;63.80;;;;;;4973522;28;20510;-68
2023/06/23 10:08:59;;;;;;;14.33;8.47;;;22.50;63.70;;;;;;4974042;28;20425;-70
2023/06/23 10:11:33;;;;;;;13.90;8.40;;;22.60;63.10;;;;;;4972732;28;20539;-69
2023/06/23 10:14:05;;;;;;;10.43;7.30;;;22.70;62.30;;;;;;4971620;28;20424;-71
2023/06/23 10:16:31;;;;;;;11.77;8.03;;;22.70;62.60;;;;;;4975037;28;20475;-70
2023/06/23 10:18:57;;;;;;;11.13;8.03;;;22.80;61.50;;;;;;4957883;28;20428;-70
2023/06/23 10:21:23;;;;;;;13.40;8.27;;;23.20;60.40;;;;;;4973309;28;20476;-69
2023/06/23 10:23:52;;;;;;;12.60;8.53;;;23.20;60.30;;;;;;4974889;28;20428;-70
2023/06/23 10:26:19;;;;;;;13.10;8.50;;;22.80;61.50;;;;;;4975873;28;20428;-70
2023/06/23 10:28:49;;;;;;;12.60;8.20;;;22.90;61.70;;;;;;4975412;28;20432;-70
2023/06/23 10:31:16;;;;;;;12.70;7.90;;;23.30;61.60;;;;;;4972959;28;20460;-70
2023/06/23 10:33:43;;;;;;;13.83;8.57;;;23.50;60.00;;;;;;4973375;28;20430;-69
2023/06/23 10:36:13;;;;;;;11.27;7.57;;;23.10;60.60;;;;;;4973598;28;20424;-70
2023/06/23 10:38:44;;;;;;;14.20;8.73;;;23.10;61.30;;;;;;4955804;28;20455;-71
2023/06/23 10:41:11;;;;;;;11.93;8.53;;;23.10;60.70;;;;;;4971517;28;20571;-70
2023/06/23 10:43:40;;;;;;;11.50;7.60;;;22.80;61.30;;;;;;4972936;28;20461;-70
2023/06/23 10:46:07;;;;;;;12.53;8.40;;;22.40;62.60;;;;;;4970849;28;20420;-70
2023/06/23 10:48:33;;;;;;;10.50;8.03;;;22.30;62.80;;;;;;4974103;28;20487;-70
2023/06/23 10:51:01;;;;;;;16.70;8.53;;;22.30;63.20;;;;;;4971661;28;20824;-70
2023/06/23 10:53:32;;;;;;;14.80;8.53;;;22.40;62.90;;;;;;4972717;28;20428;-70
2023/06/23 10:55:58;;;;;;;14.07;8.00;;;22.70;62.60;;;;;;4972804;28;20966;-70
2023/06/23 10:58:25;;;;;;;15.27;7.90;;;22.80;62.80;;;;;;4972531;28;20875;-70
2023/06/23 11:00:53;;;;;;;12.47;8.17;;;22.90;62.90;;;;;;4971355;28;20460;-72
2023/06/23 11:03:33;;;;;;;11.50;6.83;;;23.40;61.20;;;;;;4972251;28;20456;-70
2023/06/23 11:06:04;;;;;;;11.13;7.97;;;23.80;59.10;;;;;;4968266;28;20443;-70
2023/06/23 11:08:37;;;;;;;9.90;7.40;;;23.30;59.70;;;;;;4967095;28;20783;-69
2023/06/23 11:11:05;;;;;;;12.00;7.57;;;23.60;58.90;;;;;;4970629;28;20512;-71
2023/06/23 11:13:43;;;;;;;9.60;7.43;;;23.60;59.10;;;;;;4972533;28;20421;-69
2023/06/23 11:16:17;;;;;;;13.37;8.10;;;23.20;60.10;;;;;;4986772;28;20534;-69
2023/06/23 11:18:51;;;;;;;12.20;8.20;;;23.00;61.30;;;;;;4972125;28;20424;-71
2023/06/23 11:21:19;;;;;;;13.40;8.20;;;23.00;61.20;;;;;;4970641;28;20998;-71
2023/06/23 11:24:06;;;;;;;10.43;7.17;;;23.00;60.70;;;;;;4972414;28;20420;-69
2023/06/23 11:26:32;;;;;;;12.73;7.83;;;23.20;60.60;;;;;;4970724;28;20423;-70
2023/06/23 11:28:59;;;;;;;10.60;7.23;;;23.60;59.90;;;;;;4972066;28;20413;-70
2023/06/23 11:31:27;;;;;;;12.37;6.73;;;23.60;59.90;;;;;;4970296;28;20279;-70
2023/06/23 11:34:00;;;;;;;10.53;6.17;;;24.10;58.50;;;;;;4971620;28;20987;-70
2023/06/23 11:36:27;;;;;;;13.00;6.07;;;24.60;55.40;;;;;;4971129;28;20415;-70
2023/06/23 11:38:55;;;;;;;8.33;6.10;;;24.40;55.20;;;;;;4972133;28;20945;-70
2023/06/23 11:41:29;;;;;;;15.57;7.50;;;23.90;56.90;;;;;;4969617;28;20521;-71
2023/06/23 11:44:00;;;;;;;12.53;8.67;;;23.80;58.50;;;;;;4967422;28;20522;-71
2023/06/23 11:46:26;;;;;;;10.23;6.70;;;23.90;58.80;;;;;;4972136;28;20410;-69
2023/06/23 11:48:52;;;;;;;14.10;8.20;;;23.50;58.90;;;;;;4975045;28;20488;-69
2023/06/23 11:51:18;;;;;;;9.50;6.53;;;24.10;58.80;;;;;;4953786;28;20465;-70
2023/06/23 11:53:45;;;;;;;9.70;6.90;;;24.80;57.40;;;;;;4974861;28;20187;-69
2023/06/23 11:56:19;;;;;;;9.97;7.00;;;25.00;56.00;;;;;;4972164;28;20457;-70
2023/06/23 11:58:50;;;;;;;14.13;7.40;;;24.90;56.20;;;;;;4967245;28;20423;-70
2023/06/23 12:01:17;;;;;;;16.50;8.20;;;24.80;56.60;;;;;;4970085;28;20961;-69
2023/06/23 12:03:51;;;;;;;11.07;7.70;;;24.60;57.20;;;;;;4970332;28;20476;-69
2023/06/23 12:06:17;;;;;;;13.13;8.30;;;24.20;58.50;;;;;;4971440;28;20445;-69
2023/06/23 12:08:49;;;;;;;12.10;7.50;;;24.10;58.80;;;;;;4971573;28;20425;-70
2023/06/23 12:11:20;;;;;;;14.77;9.03;;;24.00;58.10;;;;;;4970040;28;20995;-70
2023/06/23 12:13:47;;;;;;;16.57;6.80;;;23.90;58.10;;;;;;4971618;28;20463;-70
2023/06/23 12:16:12;;;;;;;13.07;7.50;;;24.00;58.70;;;;;;4971333;28;20974;-70
2023/06/23 12:18:49;;;;;;;9.73;6.77;;;24.00;58.40;;;;;;4971954;28;20469;-71
2023/06/23 12:21:19;;;;;;;10.53;6.83;;;24.00;59.30;;;;;;4971219;28;20246;-70
2023/06/23 12:23:46;;;;;;;12.50;7.27;;;24.50;58.40;;;;;;4972345;28;20465;-70
2023/06/23 12:26:14;;;;;;;12.60;6.37;;;24.80;56.90;;;;;;4971338;28;20465;-70
2023/06/23 12:28:40;;;;;;;7.83;5.90;;;24.40;55.40;;;;;;4971614;28;20433;-70
2023/06/23 12:31:06;;;;;;;7.30;5.60;;;24.10;55.20;;;;;;4969784;28;20816;-69
2023/06/23 12:33:33;;;;;;;9.60;6.33;;;23.60;57.40;;;;;;4970933;28;20541;-70
2023/06/23 12:36:07;;;;;;;11.50;6.70;;;23.30;58.90;;;;;;4971110;28;21003;-68
2023/06/23 12:38:34;;;;;;;10.97;7.20;;;23.40;59.30;;;;;;4968052;28;20504;-69
2023/06/23 12:41:16;;;;;;;13.80;8.17;;;23.50;59.10;;;;;;4970298;28;20460;-71
2023/06/23 12:43:45;;;;;;;10.60;6.73;;;23.30;60.00;;;;;;4971683;28;20456;-70